createdAt,value
2023-02-16T00:01:58.089Z,5.7
2023-02-16T00:06:40.320Z,5.7
2023-02-16T00:11:46.690Z,5.6
2023-02-16T00:21:49.601Z,5.6
2023-02-16T00:27:05.962Z,5.5
2023-02-16T00:32:12.600Z,5.5
2023-02-16T00:37:18.816Z,5.4
2023-02-16T00:42:45.212Z,5.4
2023-02-16T00:47:21.555Z,5.4
2023-02-16T00:53:38.159Z,5.3
2023-02-16T00:57:44.474Z,5.3
2023-02-16T01:02:50.985Z,5.3
2023-02-16T01:07:57.483Z,5.2
2023-02-16T01:13:27.944Z,5.2
2023-02-16T01:18:10.249Z,5.2
2023-02-16T01:23:16.643Z,5.1
2023-02-16T01:28:23.034Z,5.1
2023-02-16T01:33:29.552Z,5.1
2023-02-16T01:38:36.093Z,5.1
2023-02-16T01:43:42.483Z,5.0
2023-02-16T01:49:09.511Z,5.0
2023-02-16T01:59:02.273Z,5.0
2023-02-16T02:03:58.623Z,5.0
2023-02-16T02:28:56.061Z,5.8
2023-02-16T02:33:39.385Z,5.8
2023-02-16T02:43:42.280Z,5.5
2023-02-16T02:54:40.365Z,5.2
2023-02-16T02:59:46.716Z,5.1
2023-02-16T03:04:53.139Z,5.1
2023-02-16T03:09:59.469Z,5.0
2023-02-16T03:21:01.729Z,4.8
2023-02-16T03:26:08.694Z,4.8
2023-02-16T03:31:15.389Z,4.8
2023-02-16T03:36:21.716Z,4.8
2023-02-16T03:41:52.259Z,4.7
2023-02-16T03:46:36.224Z,4.7
2023-02-16T03:51:42.673Z,4.6
2023-02-16T03:56:48.988Z,4.6
2023-02-16T04:01:55.379Z,4.5
2023-02-16T04:07:01.836Z,4.5
2023-02-16T04:12:32.276Z,4.5
2023-02-16T04:17:14.775Z,4.4
2023-02-16T04:22:11.117Z,4.4
2023-02-16T04:27:27.504Z,4.4
2023-02-16T04:32:23.854Z,4.3
2023-02-16T04:38:04.339Z,4.3
2023-02-16T04:43:30.736Z,4.3
2023-02-16T04:49:01.108Z,4.2
2023-02-16T04:54:08.621Z,4.2
2023-02-16T04:59:14.989Z,4.2
2023-02-16T05:04:21.537Z,4.3
2023-02-16T05:09:27.823Z,4.2
2023-02-16T05:14:34.206Z,4.2
2023-02-16T05:19:40.620Z,4.3
2023-02-16T05:24:47.048Z,4.3
2023-02-16T05:29:53.455Z,4.3
2023-02-16T05:35:00.086Z,4.3
2023-02-16T05:40:06.586Z,4.3
2023-02-16T05:45:33.011Z,4.3
2023-02-16T05:50:23.357Z,4.4
2023-02-16T05:55:25.755Z,4.4
2023-02-16T06:00:32.124Z,4.4
2023-02-16T06:05:38.610Z,4.4
2023-02-16T06:10:45.122Z,4.4
2023-02-16T06:15:51.666Z,4.5
2023-02-16T06:20:47.939Z,4.5
2023-02-16T06:26:04.356Z,4.5
2023-02-16T06:31:00.810Z,4.5
2023-02-16T06:36:07.055Z,4.6
2023-02-16T06:41:23.563Z,4.6
2023-02-16T06:46:19.823Z,4.6
2023-02-16T06:51:36.197Z,4.6
2023-02-16T06:56:42.794Z,4.7
2023-02-16T07:01:49.390Z,4.8
2023-02-16T07:06:55.840Z,4.8
2023-02-16T07:11:52.277Z,4.8
2023-02-16T07:16:58.582Z,4.8
2023-02-16T07:22:35.037Z,4.9
2023-02-16T07:27:21.426Z,4.9
2023-02-16T07:32:27.854Z,5.0
2023-02-16T07:37:34.120Z,5.0
2023-02-16T07:47:46.912Z,5.1
2023-02-16T07:53:17.333Z,5.2
2023-02-16T07:57:59.732Z,5.2
2023-02-16T08:03:06.278Z,5.3
2023-02-16T08:18:15.232Z,5.4
2023-02-16T08:28:27.975Z,5.6
2023-02-16T08:38:50.745Z,5.7
2023-02-16T08:44:11.179Z,5.7
2023-02-16T08:49:03.511Z,5.8
2023-02-16T08:54:09.886Z,5.8
2023-02-16T08:59:16.943Z,5.9
2023-02-16T09:04:23.296Z,5.9
2023-02-16T09:09:19.787Z,6.0
2023-02-16T09:14:26.190Z,6.1
2023-02-16T09:19:44.116Z,6.1
2023-02-16T09:24:50.502Z,6.2
2023-02-16T09:29:56.914Z,6.3
2023-02-16T09:35:23.293Z,6.4
2023-02-16T09:40:09.651Z,6.6
2023-02-16T09:45:16.222Z,6.7
2023-02-16T09:50:50.252Z,6.8
2023-02-16T09:55:27.940Z,6.9
2023-02-16T10:00:35.364Z,7.1
2023-02-16T10:05:41.731Z,7.2
2023-02-16T10:11:12.160Z,7.3
2023-02-16T10:15:44.563Z,7.4
2023-02-16T10:21:00.952Z,7.5
2023-02-16T10:26:07.352Z,7.5
2023-02-16T10:31:04.338Z,7.6
2023-02-16T10:36:20.079Z,7.7
2023-02-16T10:41:26.450Z,7.7
2023-02-16T10:51:39.236Z,7.8
2023-02-16T10:56:45.623Z,7.8
2023-02-16T11:01:52.166Z,7.9
2023-02-16T11:07:58.667Z,8.0
2023-02-16T11:12:30.140Z,8.0
2023-02-16T11:17:12.585Z,8.1
2023-02-16T11:23:19.013Z,8.1
2023-02-16T11:27:25.303Z,8.2
2023-02-16T11:32:32.048Z,8.3
2023-02-16T11:37:28.541Z,8.4
2023-02-16T11:42:34.989Z,8.5
2023-02-16T11:47:41.560Z,8.6
2023-02-16T11:53:11.938Z,8.7
2023-02-16T11:58:04.512Z,8.9
2023-02-16T12:03:11.930Z,9.0
2023-02-16T12:08:18.284Z,9.1
2023-02-16T12:13:24.678Z,9.3
2023-02-16T12:18:35.110Z,9.4
2023-02-16T12:23:37.574Z,9.4
2023-02-16T12:28:43.982Z,9.5
2023-02-16T12:33:50.363Z,9.5
2023-02-16T12:38:58.331Z,9.6
2023-02-16T12:44:04.732Z,9.6
2023-02-16T12:49:01.165Z,9.5
2023-02-16T12:54:17.493Z,9.5
2023-02-16T12:59:23.883Z,9.4
2023-02-16T13:05:14.427Z,9.4
2023-02-16T13:09:36.658Z,9.3
2023-02-16T13:19:49.429Z,9.2
2023-02-16T13:24:56.002Z,9.2
2023-02-16T13:30:26.572Z,9.1
2023-02-16T13:35:08.796Z,9.1
2023-02-16T13:40:35.263Z,9.1
2023-02-16T13:50:28.546Z,9.0
2023-02-16T13:55:35.939Z,9.1
2023-02-16T14:00:43.407Z,9.2
2023-02-16T14:05:49.760Z,9.3
2023-02-16T14:11:40.212Z,9.4
2023-02-16T14:16:02.866Z,9.5
2023-02-16T14:26:18.890Z,9.7
2023-02-16T14:31:25.455Z,9.8
2023-02-16T14:36:32.026Z,9.9
2023-02-16T14:41:58.106Z,9.9
2023-02-16T14:46:44.473Z,10.0
2023-02-16T14:51:50.861Z,10.1
2023-02-16T14:56:58.351Z,10.1
2023-02-16T15:02:28.809Z,10.2
2023-02-16T15:07:11.126Z,10.2
2023-02-16T15:12:07.489Z,10.4
2023-02-16T15:17:13.918Z,10.4
2023-02-16T15:22:30.523Z,10.5
2023-02-16T15:27:36.947Z,10.5
2023-02-16T15:32:33.348Z,10.5
2023-02-16T15:37:49.762Z,10.4
2023-02-16T15:42:56.129Z,10.4
2023-02-16T15:48:02.505Z,10.3
2023-02-16T15:53:08.942Z,10.3
2023-02-16T15:58:15.299Z,10.2
2023-02-16T16:03:21.671Z,10.2
2023-02-16T16:08:28.084Z,10.2
2023-02-16T16:13:34.428Z,10.1
2023-02-16T16:18:44.361Z,10.1
2023-02-16T16:23:50.879Z,10.0
2023-02-16T16:28:57.152Z,10.0
2023-02-16T16:34:03.540Z,9.9
2023-02-16T16:39:10.491Z,9.9
2023-02-16T16:44:16.920Z,9.8
2023-02-16T16:49:23.401Z,9.7
2023-02-16T16:54:29.808Z,9.7
2023-02-16T16:59:39.735Z,9.6
2023-02-16T17:04:46.095Z,9.6
2023-02-16T17:09:52.502Z,9.5
2023-02-16T17:14:58.908Z,9.5
2023-02-16T17:20:05.291Z,9.4
2023-02-16T17:25:01.695Z,9.4
2023-02-16T17:30:18.063Z,9.4
2023-02-16T17:35:24.442Z,9.3
2023-02-16T17:40:30.968Z,9.3
2023-02-16T17:45:37.429Z,9.3
2023-02-16T17:50:33.722Z,9.3
2023-02-16T17:55:50.145Z,9.2
2023-02-16T18:00:56.577Z,9.2
2023-02-16T18:05:52.988Z,9.2
2023-02-16T18:10:59.397Z,9.2
2023-02-16T18:16:15.998Z,9.2
2023-02-16T18:21:22.323Z,9.2
2023-02-16T18:26:18.699Z,9.2
2023-02-16T18:36:45.028Z,9.2
2023-02-16T18:41:51.438Z,9.2
2023-02-16T18:47:32.070Z,9.2
2023-02-16T18:52:29.474Z,9.2
2023-02-16T18:57:45.878Z,9.2
2023-02-16T19:02:52.254Z,9.3
2023-02-16T19:07:58.639Z,9.3
2023-02-16T19:13:05.047Z,9.3
2023-02-16T19:18:13.022Z,9.3
2023-02-16T19:23:19.516Z,9.3
2023-02-16T19:28:25.902Z,9.3
2023-02-16T19:33:32.274Z,9.3
2023-02-16T19:38:38.694Z,9.3
2023-02-16T19:43:45.109Z,9.3
2023-02-16T19:48:51.613Z,9.4
2023-02-16T19:54:00.188Z,9.4
2023-02-16T19:59:06.603Z,9.4
2023-02-16T20:04:13.157Z,9.4
2023-02-16T20:09:09.457Z,9.4
2023-02-16T20:14:45.941Z,9.5
2023-02-16T20:24:38.783Z,9.5
2023-02-16T20:29:45.165Z,9.5
2023-02-16T20:35:12.708Z,9.5
2023-02-16T20:42:50.974Z,9.5
2023-02-16T20:45:09.009Z,9.5
2023-02-16T20:50:35.502Z,9.5
2023-02-16T20:55:21.788Z,9.5
2023-02-16T21:00:28.210Z,9.5
2023-02-16T21:05:34.599Z,9.5
2023-02-16T21:10:41.075Z,9.5
2023-02-16T21:15:47.535Z,9.5
2023-02-16T21:20:53.931Z,9.5
2023-02-16T21:26:00.364Z,9.5
2023-02-16T21:31:06.885Z,9.5
2023-02-16T21:36:13.176Z,9.5
2023-02-16T21:41:19.507Z,9.5
2023-02-16T21:46:25.894Z,9.5
2023-02-16T21:51:32.288Z,9.5
2023-02-16T21:56:58.758Z,9.5
2023-02-16T22:01:45.114Z,9.5
2023-02-16T22:12:34.242Z,9.5
2023-02-16T22:17:42.166Z,9.6
2023-02-16T22:22:52.529Z,9.6
2023-02-16T22:27:54.941Z,9.6
2023-02-16T22:33:21.482Z,9.6
2023-02-16T22:38:27.946Z,9.6
2023-02-16T22:43:28.418Z,9.6
2023-02-16T22:48:20.761Z,9.6
2023-02-16T22:53:27.149Z,9.6
2023-02-16T22:58:33.570Z,9.6
2023-02-16T23:03:39.958Z,9.6
2023-02-16T23:09:20.564Z,9.7
2023-02-16T23:14:29.264Z,9.6
2023-02-16T23:19:34.386Z,9.7
2023-02-16T23:24:40.765Z,9.7
2023-02-16T23:29:47.329Z,9.7
2023-02-16T23:34:54.753Z,9.7
2023-02-16T23:40:01.153Z,9.7
2023-02-16T23:45:07.868Z,9.7
2023-02-16T23:50:14.228Z,9.7
2023-02-16T23:55:20.627Z,9.7
